Terminal Aerodrome Forecast
Issued by NWS

Home | Current Version | Previous Version | Text Only | Print | Product List | Glossary On
Versions: 1 2 3 4 5 6 7 8 9 10 11 12 13 14 15 16 17 18 19 20 21 22 23
000
FTUS43 KIND 230200 AAA
TAFBMG
TAF AMD
KBMG 230217Z 2302/2324 13009KT 5SM -RA BKN025 OVC050
     FM230600 15011KT 4SM -RA BR SCT004 OVC007 WS015/20040KT
     FM230900 19012G20KT 4SM -RA BR OVC008
     FM231400 21007KT 5SM BR VCSH OVC025
     FM231900 24005KT P6SM OVC040
      AMD LTD TO CLD VIS AND WIND 2302/2314=

USA.gov is the U.S. government's official web portal to all federal, state and local government web resources and services.